sensor_id;sensor_type;location;lat;lon;timestamp;pressure;altitude;pressure_sealevel;temperature;humidity
68137;BME280;54939;50.826;9.030;2022-10-22T00:00:21;98185.63;;;14.91;64.79
68137;BME280;54939;50.826;9.030;2022-10-22T00:00:51;98185.81;;;14.90;64.72
68137;BME280;54939;50.826;9.030;2022-10-22T00:01:21;98187.66;;;14.89;64.92
68137;BME280;54939;50.826;9.030;2022-10-22T00:01:53;98184.97;;;14.89;64.82
68137;BME280;54939;50.826;9.030;2022-10-22T00:02:23;98184.97;;;14.89;64.86
68137;BME280;54939;50.826;9.030;2022-10-22T00:02:54;98189.69;;;14.87;65.02
68137;BME280;54939;50.826;9.030;2022-10-22T00:03:25;98192.38;;;14.87;65.10
68137;BME280;54939;50.826;9.030;2022-10-22T00:03:55;98186.63;;;14.90;65.05
68137;BME280;54939;50.826;9.030;2022-10-22T00:04:25;98189.31;;;14.90;65.00
68137;BME280;54939;50.826;9.030;2022-10-22T00:04:55;98195.72;;;14.89;64.52
68137;BME280;54939;50.826;9.030;2022-10-22T00:05:26;98188.50;;;14.90;65.05
68137;BME280;54939;50.826;9.030;2022-10-22T00:05:56;98193.69;;;14.91;64.93
68137;BME280;54939;50.826;9.030;2022-10-22T00:06:27;98197.56;;;14.89;64.80
68137;BME280;54939;50.826;9.030;2022-10-22T00:06:57;98195.34;;;14.92;64.82
68137;BME280;54939;50.826;9.030;2022-10-22T00:07:27;98197.38;;;14.90;64.64
68137;BME280;54939;50.826;9.030;2022-10-22T00:07:58;98195.72;;;14.89;64.67
68137;BME280;54939;50.826;9.030;2022-10-22T00:08:29;98206.28;;;14.91;64.72
68137;BME280;54939;50.826;9.030;2022-10-22T00:08:59;98207.75;;;14.93;64.79
68137;BME280;54939;50.826;9.030;2022-10-22T00:09:30;98208.78;;;14.92;64.79
68137;BME280;54939;50.826;9.030;2022-10-22T00:10:00;98203.19;;;14.94;64.97
68137;BME280;54939;50.826;9.030;2022-10-22T00:10:30;98216.84;;;14.92;64.73
68137;BME280;54939;50.826;9.030;2022-10-22T00:11:07;98206.28;;;14.91;64.95
68137;BME280;54939;50.826;9.030;2022-10-22T00:11:38;98212.69;;;14.90;64.73
68137;BME280;54939;50.826;9.030;2022-10-22T00:12:08;98210.19;;;14.88;64.75
68137;BME280;54939;50.826;9.030;2022-10-22T00:12:38;98219.06;;;14.89;64.73
68137;BME280;54939;50.826;9.030;2022-10-22T00:13:09;98211.84;;;14.89;64.83
68137;BME280;54939;50.826;9.030;2022-10-22T00:13:40;98210.00;;;14.90;64.83
68137;BME280;54939;50.826;9.030;2022-10-22T00:14:10;98213.69;;;14.89;64.81
68137;BME280;54939;50.826;9.030;2022-10-22T00:14:41;98210.19;;;14.88;64.77
68137;BME280;54939;50.826;9.030;2022-10-22T00:15:11;98210.81;;;14.90;64.61
68137;BME280;54939;50.826;9.030;2022-10-22T00:15:41;98214.34;;;14.91;64.69
68137;BME280;54939;50.826;9.030;2022-10-22T00:16:12;98222.41;;;14.91;64.78
68137;BME280;54939;50.826;9.030;2022-10-22T00:16:42;98210.00;;;14.90;64.87
68137;BME280;54939;50.826;9.030;2022-10-22T00:17:12;98216.00;;;14.92;64.88
68137;BME280;54939;50.826;9.030;2022-10-22T00:17:43;98219.72;;;14.91;64.96
68137;BME280;54939;50.826;9.030;2022-10-22T00:18:13;98217.41;;;14.88;64.74
68137;BME280;54939;50.826;9.030;2022-10-22T00:18:43;98211.84;;;14.89;65.04
68137;BME280;54939;50.826;9.030;2022-10-22T00:19:14;98211.00;;;14.89;64.87
68137;BME280;54939;50.826;9.030;2022-10-22T00:19:44;98215.38;;;14.90;64.83
68137;BME280;54939;50.826;9.030;2022-10-22T00:20:15;98220.09;;;14.88;64.98
68137;BME280;54939;50.826;9.030;2022-10-22T00:20:45;98223.78;;;14.87;64.74
68137;BME280;54939;50.826;9.030;2022-10-22T00:21:15;98220.09;;;14.88;64.78
68137;BME280;54939;50.826;9.030;2022-10-22T00:21:45;98228.38;;;14.86;65.37
68137;BME280;54939;50.826;9.030;2022-10-22T00:22:16;98220.31;;;14.86;65.18
68137;BME280;54939;50.826;9.030;2022-10-22T00:22:46;98226.31;;;14.88;65.17
68137;BME280;54939;50.826;9.030;2022-10-22T00:23:16;98225.09;;;14.91;64.21
68137;BME280;54939;50.826;9.030;2022-10-22T00:23:46;98223.44;;;14.90;64.83
68137;BME280;54939;50.826;9.030;2022-10-22T00:24:17;98223.88;;;14.93;64.81
68137;BME280;54939;50.826;9.030;2022-10-22T00:24:47;98217.47;;;14.94;64.71
68137;BME280;54939;50.826;9.030;2022-10-22T00:25:17;98227.38;;;14.94;64.74
68137;BME280;54939;50.826;9.030;2022-10-22T00:25:47;98220.38;;;14.93;64.85
68137;BME280;54939;50.826;9.030;2022-10-22T00:26:18;98223.25;;;14.91;64.80
68137;BME280;54939;50.826;9.030;2022-10-22T00:26:48;98220.38;;;14.93;64.92
68137;BME280;54939;50.826;9.030;2022-10-22T00:27:18;98225.94;;;14.91;64.91
68137;BME280;54939;50.826;9.030;2022-10-22T00:27:49;98225.94;;;14.91;64.81
68137;BME280;54939;50.826;9.030;2022-10-22T00:28:19;98227.59;;;14.92;65.05
68137;BME280;54939;50.826;9.030;2022-10-22T00:28:49;98227.59;;;14.92;64.81
68137;BME280;54939;50.826;9.030;2022-10-22T00:29:19;98230.66;;;14.89;65.04
68137;BME280;54939;50.826;9.030;2022-10-22T00:29:50;98226.13;;;14.90;64.92
68137;BME280;54939;50.826;9.030;2022-10-22T00:30:20;98235.84;;;14.91;64.73
68137;BME280;54939;50.826;9.030;2022-10-22T00:30:57;98232.31;;;14.90;64.76
68137;BME280;54939;50.826;9.030;2022-10-22T00:31:28;98235.38;;;14.87;64.73
68137;BME280;54939;50.826;9.030;2022-10-22T00:31:58;98237.06;;;14.88;64.89
68137;BME280;54939;50.826;9.030;2022-10-22T00:32:28;98237.06;;;14.88;64.77
68137;BME280;54939;50.826;9.030;2022-10-22T00:32:58;98231.84;;;14.87;64.87
68137;BME280;54939;50.826;9.030;2022-10-22T00:33:28;98237.22;;;14.87;64.80
68137;BME280;54939;50.826;9.030;2022-10-22T00:33:59;98242.41;;;14.88;64.62
68137;BME280;54939;50.826;9.030;2022-10-22T00:34:30;98246.13;;;14.87;64.76
68137;BME280;54939;50.826;9.030;2022-10-22T00:35:00;98235.38;;;14.87;64.82
68137;BME280;54939;50.826;9.030;2022-10-22T00:35:30;98235.00;;;14.90;64.76
68137;BME280;54939;50.826;9.030;2022-10-22T00:36:00;98236.88;;;14.90;64.90
68137;BME280;54939;50.826;9.030;2022-10-22T00:36:30;98243.72;;;14.92;64.80
68137;BME280;54939;50.826;9.030;2022-10-22T00:37:00;98243.06;;;14.90;64.99
68137;BME280;54939;50.826;9.030;2022-10-22T00:37:31;98241.03;;;14.92;64.75
68137;BME280;54939;50.826;9.030;2022-10-22T00:38:01;98240.38;;;14.90;64.68
68137;BME280;54939;50.826;9.030;2022-10-22T00:38:31;98243.91;;;14.91;64.77
68137;BME280;54939;50.826;9.030;2022-10-22T00:39:01;98239.56;;;14.90;64.95
68137;BME280;54939;50.826;9.030;2022-10-22T00:39:32;98239.56;;;14.90;64.81
68137;BME280;54939;50.826;9.030;2022-10-22T00:40:02;98234.41;;;14.95;64.72
68137;BME280;54939;50.826;9.030;2022-10-22T00:40:33;98244.56;;;14.93;64.73
68137;BME280;54939;50.826;9.030;2022-10-22T00:41:03;98240.00;;;14.93;64.66
68137;BME280;54939;50.826;9.030;2022-10-22T00:41:34;98235.66;;;14.92;64.61
68137;BME280;54939;50.826;9.030;2022-10-22T00:42:04;98243.50;;;14.94;64.45
68137;BME280;54939;50.826;9.030;2022-10-22T00:42:34;98236.69;;;14.91;64.81
68137;BME280;54939;50.826;9.030;2022-10-22T00:43:04;98239.56;;;14.90;64.82
68137;BME280;54939;50.826;9.030;2022-10-22T00:43:51;98233.53;;;14.88;64.84
68137;BME280;54939;50.826;9.030;2022-10-22T00:45:41;98233.34;;;14.89;65.01
68137;BME280;54939;50.826;9.030;2022-10-22T00:46:11;98239.56;;;14.90;64.90
68137;BME280;54939;50.826;9.030;2022-10-22T00:46:41;98238.06;;;14.87;65.00
68137;BME280;54939;50.826;9.030;2022-10-22T00:47:12;98240.38;;;14.90;64.72
68137;BME280;54939;50.826;9.030;2022-10-22T00:47:43;98227.78;;;14.91;64.77
68137;BME280;54939;50.826;9.030;2022-10-22T00:48:18;98228.16;;;14.88;65.21
68137;BME280;54939;50.826;9.030;2022-10-22T00:48:49;98229.81;;;14.89;64.94
68137;BME280;54939;50.826;9.030;2022-10-22T00:49:20;98228.44;;;14.93;65.04
68137;BME280;54939;50.826;9.030;2022-10-22T00:49:50;98225.94;;;14.91;64.61
68137;BME280;54939;50.826;9.030;2022-10-22T00:50:32;98229.63;;;14.90;64.71
68137;BME280;54939;50.826;9.030;2022-10-22T00:51:05;98229.81;;;14.89;64.83
68137;BME280;54939;50.826;9.030;2022-10-22T00:51:36;98223.63;;;14.88;64.78
68137;BME280;54939;50.826;9.030;2022-10-22T00:52:06;98228.63;;;14.91;64.71
68137;BME280;54939;50.826;9.030;2022-10-22T00:52:37;98222.59;;;14.89;64.94
68137;BME280;54939;50.826;9.030;2022-10-22T00:53:12;98227.13;;;14.89;64.80
68137;BME280;54939;50.826;9.030;2022-10-22T00:53:44;98225.47;;;14.88;64.90
68137;BME280;54939;50.826;9.030;2022-10-22T00:54:16;98224.25;;;14.90;64.92
68137;BME280;54939;50.826;9.030;2022-10-22T00:54:46;98225.75;;;14.93;64.81
68137;BME280;54939;50.826;9.030;2022-10-22T00:55:16;98215.19;;;14.91;65.01
68137;BME280;54939;50.826;9.030;2022-10-22T00:55:48;98225.75;;;14.93;64.63
68137;BME280;54939;50.826;9.030;2022-10-22T00:56:20;98219.72;;;14.91;64.59
68137;BME280;54939;50.826;9.030;2022-10-22T00:56:51;98214.16;;;14.92;64.47
68137;BME280;54939;50.826;9.030;2022-10-22T00:57:21;98228.63;;;14.91;64.75
68137;BME280;54939;50.826;9.030;2022-10-22T00:57:51;98225.09;;;14.91;64.70
68137;BME280;54939;50.826;9.030;2022-10-22T00:58:24;98221.56;;;14.90;64.71
68137;BME280;54939;50.826;9.030;2022-10-22T00:58:56;98219.91;;;14.89;64.72
68137;BME280;54939;50.826;9.030;2022-10-22T00:59:28;98220.91;;;14.88;64.87
68137;BME280;54939;50.826;9.030;2022-10-22T00:59:58;98218.41;;;14.87;64.81
68137;BME280;54939;50.826;9.030;2022-10-22T01:00:28;98222.78;;;14.88;64.87
68137;BME280;54939;50.826;9.030;2022-10-22T01:00:59;98212.03;;;14.88;64.65
68137;BME280;54939;50.826;9.030;2022-10-22T01:01:30;98215.00;;;14.93;64.65
68137;BME280;54939;50.826;9.030;2022-10-22T01:02:00;98215.19;;;14.91;64.68
68137;BME280;54939;50.826;9.030;2022-10-22T01:02:30;98211.47;;;14.92;64.78
68137;BME280;54939;50.826;9.030;2022-10-22T01:03:01;98214.16;;;14.92;64.50
68137;BME280;54939;50.826;9.030;2022-10-22T01:03:31;98215.00;;;14.93;64.53
68137;BME280;54939;50.826;9.030;2022-10-22T01:04:01;98207.31;;;14.90;64.92
68137;BME280;54939;50.826;9.030;2022-10-22T01:04:31;98208.31;;;14.89;64.69
68137;BME280;54939;50.826;9.030;2022-10-22T01:05:02;98202.13;;;14.88;64.63
68137;BME280;54939;50.826;9.030;2022-10-22T01:05:37;98205.63;;;14.89;64.73
68137;BME280;54939;50.826;9.030;2022-10-22T01:06:09;98203.97;;;14.88;64.77
68137;BME280;54939;50.826;9.030;2022-10-22T01:06:41;98213.06;;;14.87;64.78
68137;BME280;54939;50.826;9.030;2022-10-22T01:07:18;98205.88;;;14.94;64.73
68137;BME280;54939;50.826;9.030;2022-10-22T01:07:50;98204.25;;;14.93;64.73
68137;BME280;54939;50.826;9.030;2022-10-22T01:08:26;98200.06;;;14.90;64.65
68137;BME280;54939;50.826;9.030;2022-10-22T01:09:58;98197.19;;;14.92;64.65
68137;BME280;54939;50.826;9.030;2022-10-22T01:11:18;98197.75;;;14.87;64.85
68137;BME280;54939;50.826;9.030;2022-10-22T01:12:00;98196.91;;;14.87;64.56
68137;BME280;54939;50.826;9.030;2022-10-22T01:13:38;98193.63;;;14.85;64.58
68137;BME280;54939;50.826;9.030;2022-10-22T01:15:41;98195.72;;;14.89;64.76
68137;BME280;54939;50.826;9.030;2022-10-22T01:16:16;98191.56;;;14.87;65.07
68137;BME280;54939;50.826;9.030;2022-10-22T01:17:30;98186.00;;;14.88;64.79
68137;BME280;54939;50.826;9.030;2022-10-22T01:19:03;98192.59;;;14.86;64.64
68137;BME280;54939;50.826;9.030;2022-10-22T01:19:54;98189.31;;;14.90;64.72
68137;BME280;54939;50.826;9.030;2022-10-22T01:21:07;98188.50;;;14.90;64.73
68137;BME280;54939;50.826;9.030;2022-10-22T01:21:43;98187.66;;;14.89;64.60
68137;BME280;54939;50.826;9.030;2022-10-22T01:22:19;98196.56;;;14.90;64.76
68137;BME280;54939;50.826;9.030;2022-10-22T01:24:40;98185.81;;;14.90;64.81
68137;BME280;54939;50.826;9.030;2022-10-22T01:25:48;98186.63;;;14.90;64.71
68137;BME280;54939;50.826;9.030;2022-10-22T01:26:34;98190.16;;;14.91;64.65
68137;BME280;54939;50.826;9.030;2022-10-22T01:29:17;98185.81;;;14.90;64.89
68137;BME280;54939;50.826;9.030;2022-10-22T01:30:00;98185.16;;;14.88;64.69
68137;BME280;54939;50.826;9.030;2022-10-22T01:30:32;98188.69;;;14.88;64.71
68137;BME280;54939;50.826;9.030;2022-10-22T01:31:03;98188.31;;;14.91;64.60
68137;BME280;54939;50.826;9.030;2022-10-22T01:31:37;98190.16;;;14.91;64.61
68137;BME280;54939;50.826;9.030;2022-10-22T01:32:10;98189.13;;;14.92;64.53
68137;BME280;54939;50.826;9.030;2022-10-22T01:32:42;98183.31;;;14.88;64.64
68137;BME280;54939;50.826;9.030;2022-10-22T01:33:15;98186.81;;;14.89;64.56
68137;BME280;54939;50.826;9.030;2022-10-22T01:33:46;98184.31;;;14.87;64.75
68137;BME280;54939;50.826;9.030;2022-10-22T01:34:18;98185.16;;;14.88;64.71
68137;BME280;54939;50.826;9.030;2022-10-22T01:34:51;98187.66;;;14.89;64.52
68137;BME280;54939;50.826;9.030;2022-10-22T01:35:23;98187.66;;;14.89;64.70
68137;BME280;54939;50.826;9.030;2022-10-22T01:35:55;98189.31;;;14.90;64.65
68137;BME280;54939;50.826;9.030;2022-10-22T01:36:27;98186.81;;;14.89;64.58
68137;BME280;54939;50.826;9.030;2022-10-22T01:36:58;98193.69;;;14.91;64.47
68137;BME280;54939;50.826;9.030;2022-10-22T01:37:29;98199.47;;;14.95;64.49
68137;BME280;54939;50.826;9.030;2022-10-22T01:38:02;98185.81;;;14.90;64.62
68137;BME280;54939;50.826;9.030;2022-10-22T01:38:33;98191.63;;;14.93;64.49
68137;BME280;54939;50.826;9.030;2022-10-22T01:39:03;98195.34;;;14.92;64.36
68137;BME280;54939;50.826;9.030;2022-10-22T01:39:34;98198.22;;;14.91;64.54
68137;BME280;54939;50.826;9.030;2022-10-22T01:40:05;98194.31;;;14.93;64.46
68137;BME280;54939;50.826;9.030;2022-10-22T01:40:37;98194.50;;;14.92;64.46
68137;BME280;54939;50.826;9.030;2022-10-22T01:41:08;98201.09;;;14.89;64.51
68137;BME280;54939;50.826;9.030;2022-10-22T01:41:41;98195.34;;;14.92;64.34
68137;BME280;54939;50.826;9.030;2022-10-22T01:42:12;98202.16;;;14.95;64.53
68137;BME280;54939;50.826;9.030;2022-10-22T01:42:52;98199.06;;;14.91;64.45
68137;BME280;54939;50.826;9.030;2022-10-22T01:43:23;98200.06;;;14.90;64.45
68137;BME280;54939;50.826;9.030;2022-10-22T01:43:53;98205.88;;;14.94;64.40
68137;BME280;54939;50.826;9.030;2022-10-22T01:44:24;98201.56;;;14.93;64.44
68137;BME280;54939;50.826;9.030;2022-10-22T01:44:55;98199.88;;;14.92;64.30
68137;BME280;54939;50.826;9.030;2022-10-22T01:45:25;98203.59;;;14.91;64.49
68137;BME280;54939;50.826;9.030;2022-10-22T01:45:58;98196.38;;;14.91;64.29
68137;BME280;54939;50.826;9.030;2022-10-22T01:46:29;98203.19;;;14.94;64.16
68137;BME280;54939;50.826;9.030;2022-10-22T01:49:37;98202.75;;;14.90;64.56
68137;BME280;54939;50.826;9.030;2022-10-22T01:52:08;98205.44;;;14.90;64.46
68137;BME280;54939;50.826;9.030;2022-10-22T01:52:51;98205.25;;;14.92;64.53
68137;BME280;54939;50.826;9.030;2022-10-22T01:54:01;98205.25;;;14.92;64.61
68137;BME280;54939;50.826;9.030;2022-10-22T01:54:38;98205.44;;;14.90;64.43
68137;BME280;54939;50.826;9.030;2022-10-22T01:57:29;98196.38;;;14.91;64.77
68137;BME280;54939;50.826;9.030;2022-10-22T01:58:06;98194.69;;;14.90;64.51
68137;BME280;54939;50.826;9.030;2022-10-22T01:58:45;98196.56;;;14.90;64.75
68137;BME280;54939;50.826;9.030;2022-10-22T01:59:23;98192.84;;;14.91;65.06
68137;BME280;54939;50.826;9.030;2022-10-22T02:00:08;98193.88;;;14.90;65.04
68137;BME280;54939;50.826;9.030;2022-10-22T02:00:42;98189.50;;;14.89;65.23
68137;BME280;54939;50.826;9.030;2022-10-22T02:03:29;98197.19;;;14.92;64.75
68137;BME280;54939;50.826;9.030;2022-10-22T02:04:16;98192.84;;;14.91;64.72
68137;BME280;54939;50.826;9.030;2022-10-22T02:04:51;98188.50;;;14.90;64.67
68137;BME280;54939;50.826;9.030;2022-10-22T02:06:28;98190.59;;;14.94;64.63
68137;BME280;54939;50.826;9.030;2022-10-22T02:07:01;98188.53;;;14.96;64.42
68137;BME280;54939;50.826;9.030;2022-10-22T02:07:38;98186.03;;;14.95;64.64
68137;BME280;54939;50.826;9.030;2022-10-22T02:08:14;98189.97;;;14.92;64.47
68137;BME280;54939;50.826;9.030;2022-10-22T02:08:46;98192.66;;;14.92;64.71
68137;BME280;54939;50.826;9.030;2022-10-22T02:09:18;98186.88;;;14.95;64.47
68137;BME280;54939;50.826;9.030;2022-10-22T02:09:50;98190.81;;;14.93;64.48
68137;BME280;54939;50.826;9.030;2022-10-22T02:10:22;98192.00;;;14.90;64.52
68137;BME280;54939;50.826;9.030;2022-10-22T02:10:53;98191.81;;;14.92;64.54
68137;BME280;54939;50.826;9.030;2022-10-22T02:11:25;98188.31;;;14.91;64.64
68137;BME280;54939;50.826;9.030;2022-10-22T02:11:55;98180.44;;;14.90;64.43
68137;BME280;54939;50.826;9.030;2022-10-22T02:12:27;98182.94;;;14.91;64.80
68137;BME280;54939;50.826;9.030;2022-10-22T02:12:58;98187.66;;;14.89;64.92
68137;BME280;54939;50.826;9.030;2022-10-22T02:13:29;98187.66;;;14.89;65.02
68137;BME280;54939;50.826;9.030;2022-10-22T02:14:02;98190.53;;;14.88;65.24
68137;BME280;54939;50.826;9.030;2022-10-22T02:14:34;98191.19;;;14.90;64.95
68137;BME280;54939;50.826;9.030;2022-10-22T02:15:06;98193.03;;;14.89;64.65
68137;BME280;54939;50.826;9.030;2022-10-22T02:15:37;98197.38;;;14.90;64.80
68137;BME280;54939;50.826;9.030;2022-10-22T02:16:09;98201.56;;;14.93;64.79
68137;BME280;54939;50.826;9.030;2022-10-22T02:16:43;98198.22;;;14.91;64.74
68137;BME280;54939;50.826;9.030;2022-10-22T02:17:15;98197.38;;;14.90;64.70
68137;BME280;54939;50.826;9.030;2022-10-22T02:17:47;98198.41;;;14.89;64.99
68137;BME280;54939;50.826;9.030;2022-10-22T02:18:19;98199.25;;;14.90;64.84
68137;BME280;54939;50.826;9.030;2022-10-22T02:18:51;98193.03;;;14.89;64.74
68137;BME280;54939;50.826;9.030;2022-10-22T02:19:57;98198.59;;;14.88;64.96
68137;BME280;54939;50.826;9.030;2022-10-22T02:20:28;98206.88;;;14.86;65.03
68137;BME280;54939;50.826;9.030;2022-10-22T02:20:59;98203.13;;;14.87;64.83
68137;BME280;54939;50.826;9.030;2022-10-22T02:21:31;98207.69;;;14.87;65.13
68137;BME280;54939;50.826;9.030;2022-10-22T02:22:01;98203.41;;;14.92;64.76
68137;BME280;54939;50.826;9.030;2022-10-22T02:22:31;98198.47;;;14.96;64.59
68137;BME280;54939;50.826;9.030;2022-10-22T02:23:02;98207.75;;;14.93;64.51
68137;BME280;54939;50.826;9.030;2022-10-22T02:23:33;98202.56;;;14.92;64.64
68137;BME280;54939;50.826;9.030;2022-10-22T02:24:03;98201.75;;;14.91;64.55
68137;BME280;54939;50.826;9.030;2022-10-22T02:24:34;98201.56;;;14.93;64.46
68137;BME280;54939;50.826;9.030;2022-10-22T02:25:05;98203.19;;;14.94;64.57
68137;BME280;54939;50.826;9.030;2022-10-22T02:25:37;98199.88;;;14.92;64.61
68137;BME280;54939;50.826;9.030;2022-10-22T02:26:31;98191.19;;;14.90;64.60
68137;BME280;54939;50.826;9.030;2022-10-22T02:27:15;98197.38;;;14.90;64.67
68137;BME280;54939;50.826;9.030;2022-10-22T02:28:03;98196.38;;;14.91;64.64
68137;BME280;54939;50.826;9.030;2022-10-22T02:28:39;98198.59;;;14.88;64.50
68137;BME280;54939;50.826;9.030;2022-10-22T02:29:14;98204.25;;;14.93;64.34
68137;BME280;54939;50.826;9.030;2022-10-22T02:30:18;98198.03;;;14.92;64.73
68137;BME280;54939;50.826;9.030;2022-10-22T02:30:52;98193.28;;;14.94;64.55
68137;BME280;54939;50.826;9.030;2022-10-22T02:31:26;98197.19;;;14.92;64.70
68137;BME280;54939;50.826;9.030;2022-10-22T02:31:57;98201.09;;;14.89;64.70
68137;BME280;54939;50.826;9.030;2022-10-22T02:32:31;98199.06;;;14.91;64.69
68137;BME280;54939;50.826;9.030;2022-10-22T02:33:03;98201.09;;;14.89;64.77
68137;BME280;54939;50.826;9.030;2022-10-22T02:33:38;98198.41;;;14.89;65.00
68137;BME280;54939;50.826;9.030;2022-10-22T02:34:14;98205.63;;;14.89;64.75
68137;BME280;54939;50.826;9.030;2022-10-22T02:34:46;98200.25;;;14.89;64.81
68137;BME280;54939;50.826;9.030;2022-10-22T02:35:18;98202.75;;;14.90;64.83
68137;BME280;54939;50.826;9.030;2022-10-22T02:35:49;98205.63;;;14.89;64.75
68137;BME280;54939;50.826;9.030;2022-10-22T02:36:21;98204.44;;;14.91;64.75
68137;BME280;54939;50.826;9.030;2022-10-22T02:36:52;98206.28;;;14.91;64.71
68137;BME280;54939;50.826;9.030;2022-10-22T02:37:23;98205.44;;;14.90;64.76
68137;BME280;54939;50.826;9.030;2022-10-22T02:37:54;98206.28;;;14.91;64.78
68137;BME280;54939;50.826;9.030;2022-10-22T02:38:25;98210.81;;;14.90;64.67
68137;BME280;54939;50.826;9.030;2022-10-22T02:38:56;98215.56;;;14.88;64.72
68137;BME280;54939;50.826;9.030;2022-10-22T02:39:26;98210.19;;;14.88;64.70
68137;BME280;54939;50.826;9.030;2022-10-22T02:39:58;98211.00;;;14.89;64.83
68137;BME280;54939;50.826;9.030;2022-10-22T02:40:29;98212.31;;;14.93;64.72
68137;BME280;54939;50.826;9.030;2022-10-22T02:40:59;98215.19;;;14.91;64.65
68137;BME280;54939;50.826;9.030;2022-10-22T02:41:30;98218.28;;;14.95;64.56
68137;BME280;54939;50.826;9.030;2022-10-22T02:42:01;98216.84;;;14.92;64.60
68137;BME280;54939;50.826;9.030;2022-10-22T02:42:31;98221.38;;;14.92;64.65
68137;BME280;54939;50.826;9.030;2022-10-22T02:43:05;98218.88;;;14.90;64.71
68137;BME280;54939;50.826;9.030;2022-10-22T02:43:39;98212.69;;;14.90;64.75
68137;BME280;54939;50.826;9.030;2022-10-22T02:44:10;98217.88;;;14.91;64.75
68137;BME280;54939;50.826;9.030;2022-10-22T02:44:40;98211.84;;;14.89;64.75
68137;BME280;54939;50.826;9.030;2022-10-22T02:45:10;98221.56;;;14.90;64.84
68137;BME280;54939;50.826;9.030;2022-10-22T02:45:41;98222.41;;;14.91;64.70
68137;BME280;54939;50.826;9.030;2022-10-22T02:46:11;98215.38;;;14.90;64.87
68137;BME280;54939;50.826;9.030;2022-10-22T02:46:41;98216.84;;;14.92;64.66
68137;BME280;54939;50.826;9.030;2022-10-22T02:47:11;98220.75;;;14.90;64.74
68137;BME280;54939;50.826;9.030;2022-10-22T02:47:42;98225.75;;;14.93;64.50
68137;BME280;54939;50.826;9.030;2022-10-22T02:48:12;98229.03;;;14.95;64.45
68137;BME280;54939;50.826;9.030;2022-10-22T02:48:42;98228.44;;;14.93;64.65
68137;BME280;54939;50.826;9.030;2022-10-22T02:49:12;98229.69;;;14.97;64.30
68137;BME280;54939;50.826;9.030;2022-10-22T02:49:43;98227.38;;;14.94;64.34
68137;BME280;54939;50.826;9.030;2022-10-22T02:50:13;98229.63;;;14.90;64.56
68137;BME280;54939;50.826;9.030;2022-10-22T02:50:43;98227.78;;;14.91;64.53
68137;BME280;54939;50.826;9.030;2022-10-22T02:51:13;98234.81;;;14.92;64.44
68137;BME280;54939;50.826;9.030;2022-10-22T02:51:44;98236.88;;;14.90;64.53
68137;BME280;54939;50.826;9.030;2022-10-22T02:52:14;98231.50;;;14.90;64.56
68137;BME280;54939;50.826;9.030;2022-10-22T02:52:44;98232.50;;;14.89;64.57
68137;BME280;54939;50.826;9.030;2022-10-22T02:53:14;98234.34;;;14.88;64.65
68137;BME280;54939;50.826;9.030;2022-10-22T02:53:44;98231.84;;;14.87;64.78
68137;BME280;54939;50.826;9.030;2022-10-22T02:54:15;98232.69;;;14.87;64.72
68137;BME280;54939;50.826;9.030;2022-10-22T02:54:45;98235.38;;;14.87;64.64
68137;BME280;54939;50.826;9.030;2022-10-22T02:55:15;98238.91;;;14.88;64.67
68137;BME280;54939;50.826;9.030;2022-10-22T02:55:45;98228.81;;;14.90;64.72
68137;BME280;54939;50.826;9.030;2022-10-22T02:56:16;98229.81;;;14.89;64.72
68137;BME280;54939;50.826;9.030;2022-10-22T02:56:46;98240.56;;;14.89;64.85
68137;BME280;54939;50.826;9.030;2022-10-22T02:57:16;98237.06;;;14.88;64.68
68137;BME280;54939;50.826;9.030;2022-10-22T02:57:46;98234.19;;;14.90;64.62
68137;BME280;54939;50.826;9.030;2022-10-22T02:58:16;98230.66;;;14.89;64.70
68137;BME280;54939;50.826;9.030;2022-10-22T02:58:46;98235.00;;;14.90;64.75
68137;BME280;54939;50.826;9.030;2022-10-22T02:59:17;98237.06;;;14.88;64.75
68137;BME280;54939;50.826;9.030;2022-10-22T02:59:47;98226.31;;;14.88;64.60
68137;BME280;54939;50.826;9.030;2022-10-22T03:00:17;98227.31;;;14.87;64.59
68137;BME280;54939;50.826;9.030;2022-10-22T03:00:48;98230.00;;;14.87;64.44
68137;BME280;54939;50.826;9.030;2022-10-22T03:01:18;98224.63;;;14.87;64.51
68137;BME280;54939;50.826;9.030;2022-10-22T03:01:48;98229.00;;;14.88;64.61
68137;BME280;54939;50.826;9.030;2022-10-22T03:02:18;98229.00;;;14.88;64.58
68137;BME280;54939;50.826;9.030;2022-10-22T03:02:48;98234.19;;;14.90;64.62
68137;BME280;54939;50.826;9.030;2022-10-22T03:03:18;98226.31;;;14.88;64.57
68137;BME280;54939;50.826;9.030;2022-10-22T03:03:49;98234.19;;;14.90;64.60
68137;BME280;54939;50.826;9.030;2022-10-22T03:04:19;98233.53;;;14.88;64.64
68137;BME280;54939;50.826;9.030;2022-10-22T03:04:49;98235.38;;;14.87;64.61
68137;BME280;54939;50.826;9.030;2022-10-22T03:05:19;98231.69;;;14.88;64.53
68137;BME280;54939;50.826;9.030;2022-10-22T03:05:50;98230.22;;;14.86;64.54
68137;BME280;54939;50.826;9.030;2022-10-22T03:06:20;98229.16;;;14.87;64.72
68137;BME280;54939;50.826;9.030;2022-10-22T03:06:50;98232.91;;;14.86;64.57
68137;BME280;54939;50.826;9.030;2022-10-22T03:07:20;98233.53;;;14.88;64.55
68137;BME280;54939;50.826;9.030;2022-10-22T03:07:50;98231.31;;;14.91;64.47
68137;BME280;54939;50.826;9.030;2022-10-22T03:08:21;98237.50;;;14.92;64.38
68137;BME280;54939;50.826;9.030;2022-10-22T03:08:51;98236.88;;;14.90;64.40
68137;BME280;54939;50.826;9.030;2022-10-22T03:09:21;98244.09;;;14.89;64.42
68137;BME280;54939;50.826;9.030;2022-10-22T03:09:51;98246.59;;;14.91;64.28
68137;BME280;54939;50.826;9.030;2022-10-22T03:10:21;98243.91;;;14.91;64.46
68137;BME280;54939;50.826;9.030;2022-10-22T03:10:52;98246.78;;;14.89;64.65
68137;BME280;54939;50.826;9.030;2022-10-22T03:11:22;98248.63;;;14.89;64.52
68137;BME280;54939;50.826;9.030;2022-10-22T03:11:52;98245.13;;;14.88;64.81
68137;BME280;54939;50.826;9.030;2022-10-22T03:12:22;98251.97;;;14.91;64.53
68137;BME280;54939;50.826;9.030;2022-10-22T03:12:52;98250.13;;;14.91;64.52
68137;BME280;54939;50.826;9.030;2022-10-22T03:13:22;98253.00;;;14.90;64.57